sensor_id;sensor_type;location;lat;lon;timestamp;temperature;humidity
83596;HTU21D;73564;45.026;38.952;2024-03-06T00:00:11;13.08;54.84
83596;HTU21D;73564;45.026;38.952;2024-03-06T00:02:36;13.08;55.37
83596;HTU21D;73564;45.026;38.952;2024-03-06T00:05:03;13.11;55.24
83596;HTU21D;73564;45.026;38.952;2024-03-06T00:07:30;13.15;55.39
83596;HTU21D;73564;45.026;38.952;2024-03-06T00:09:56;13.23;55.34
83596;HTU21D;73564;45.026;38.952;2024-03-06T00:12:21;13.26;54.60
83596;HTU21D;73564;45.026;38.952;2024-03-06T00:14:47;13.20;55.00
83596;HTU21D;73564;45.026;38.952;2024-03-06T00:17:13;13.22;55.26
83596;HTU21D;73564;45.026;38.952;2024-03-06T00:19:39;13.29;55.24
83596;HTU21D;73564;45.026;38.952;2024-03-06T00:22:05;13.36;55.28
83596;HTU21D;73564;45.026;38.952;2024-03-06T00:24:31;13.38;55.41
83596;HTU21D;73564;45.026;38.952;2024-03-06T00:26:57;13.50;55.38
83596;HTU21D;73564;45.026;38.952;2024-03-06T00:29:23;13.61;54.76
83596;HTU21D;73564;45.026;38.952;2024-03-06T00:31:49;13.64;55.00
83596;HTU21D;73564;45.026;38.952;2024-03-06T00:34:15;13.69;54.85
83596;HTU21D;73564;45.026;38.952;2024-03-06T00:36:42;13.68;54.17
83596;HTU21D;73564;45.026;38.952;2024-03-06T00:39:09;13.58;54.72
83596;HTU21D;73564;45.026;38.952;2024-03-06T00:41:35;13.59;54.82
83596;HTU21D;73564;45.026;38.952;2024-03-06T00:44:01;13.61;54.62
83596;HTU21D;73564;45.026;38.952;2024-03-06T00:46:27;13.56;54.61
83596;HTU21D;73564;45.026;38.952;2024-03-06T00:48:53;13.60;54.69
83596;HTU21D;73564;45.026;38.952;2024-03-06T00:51:19;13.64;54.97
83596;HTU21D;73564;45.026;38.952;2024-03-06T00:53:45;13.65;54.54
83596;HTU21D;73564;45.026;38.952;2024-03-06T00:56:11;13.61;54.62
83596;HTU21D;73564;45.026;38.952;2024-03-06T00:58:36;13.58;54.26
83596;HTU21D;73564;45.026;38.952;2024-03-06T01:01:02;13.49;54.71
83596;HTU21D;73564;45.026;38.952;2024-03-06T01:03:28;13.50;55.00
83596;HTU21D;73564;45.026;38.952;2024-03-06T01:05:54;13.55;55.03
83596;HTU21D;73564;45.026;38.952;2024-03-06T01:08:23;13.64;54.54
83596;HTU21D;73564;45.026;38.952;2024-03-06T01:10:53;13.66;54.69
83596;HTU21D;73564;45.026;38.952;2024-03-06T01:13:22;13.69;54.71
83596;HTU21D;73564;45.026;38.952;2024-03-06T01:15:47;13.70;54.48
83596;HTU21D;73564;45.026;38.952;2024-03-06T01:18:13;13.65;54.10
83596;HTU21D;73564;45.026;38.952;2024-03-06T01:20:39;13.58;54.57
83596;HTU21D;73564;45.026;38.952;2024-03-06T01:23:05;13.62;54.97
83596;HTU21D;73564;45.026;38.952;2024-03-06T01:25:32;13.69;54.59
83596;HTU21D;73564;45.026;38.952;2024-03-06T01:27:58;13.73;54.76
83596;HTU21D;73564;45.026;38.952;2024-03-06T01:30:23;13.82;54.67
83596;HTU21D;73564;45.026;38.952;2024-03-06T01:32:49;13.93;54.55
83596;HTU21D;73564;45.026;38.952;2024-03-06T01:35:15;14.01;54.51
83596;HTU21D;73564;45.026;38.952;2024-03-06T01:37:41;14.12;54.32
83596;HTU21D;73564;45.026;38.952;2024-03-06T01:40:07;14.19;53.92
83596;HTU21D;73564;45.026;38.952;2024-03-06T01:42:34;14.26;54.05
83596;HTU21D;73564;45.026;38.952;2024-03-06T01:45:02;14.33;53.98
83596;HTU21D;73564;45.026;38.952;2024-03-06T01:47:27;14.36;53.17
83596;HTU21D;73564;45.026;38.952;2024-03-06T01:49:53;14.30;53.53
83596;HTU21D;73564;45.026;38.952;2024-03-06T01:52:20;14.28;53.62
83596;HTU21D;73564;45.026;38.952;2024-03-06T01:54:48;14.26;53.62
83596;HTU21D;73564;45.026;38.952;2024-03-06T01:57:15;14.28;53.92
83596;HTU21D;73564;45.026;38.952;2024-03-06T01:59:42;14.36;53.92
83596;HTU21D;73564;45.026;38.952;2024-03-06T02:02:07;14.37;53.61
83596;HTU21D;73564;45.026;38.952;2024-03-06T02:04:40;14.38;53.95
83596;HTU21D;73564;45.026;38.952;2024-03-06T02:07:09;14.47;53.78
83596;HTU21D;73564;45.026;38.952;2024-03-06T02:09:38;14.48;53.45
83596;HTU21D;73564;45.026;38.952;2024-03-06T02:12:05;14.44;53.27
83596;HTU21D;73564;45.026;38.952;2024-03-06T02:14:35;14.38;53.55
83596;HTU21D;73564;45.026;38.952;2024-03-06T02:17:00;14.33;53.32
83596;HTU21D;73564;45.026;38.952;2024-03-06T02:19:43;14.26;52.53
83596;HTU21D;73564;45.026;38.952;2024-03-06T02:22:09;14.20;53.79
83596;HTU21D;73564;45.026;38.952;2024-03-06T02:24:36;14.27;53.97
83596;HTU21D;73564;45.026;38.952;2024-03-06T02:27:03;14.36;53.78
83596;HTU21D;73564;45.026;38.952;2024-03-06T02:29:31;14.42;53.50
83596;HTU21D;73564;45.026;38.952;2024-03-06T02:31:58;14.43;53.20
83596;HTU21D;73564;45.026;38.952;2024-03-06T02:34:24;14.42;52.54
83596;HTU21D;73564;45.026;38.952;2024-03-06T02:36:53;14.24;52.92
83596;HTU21D;73564;45.026;38.952;2024-03-06T02:39:19;14.20;53.17
83596;HTU21D;73564;45.026;38.952;2024-03-06T02:41:46;14.19;53.11
83596;HTU21D;73564;45.026;38.952;2024-03-06T02:44:11;14.18;53.51
83596;HTU21D;73564;45.026;38.952;2024-03-06T02:46:37;14.21;53.53
83596;HTU21D;73564;45.026;38.952;2024-03-06T02:49:03;14.22;53.09
83596;HTU21D;73564;45.026;38.952;2024-03-06T02:51:31;14.21;53.53
83596;HTU21D;73564;45.026;38.952;2024-03-06T02:53:57;14.28;53.59
83596;HTU21D;73564;45.026;38.952;2024-03-06T02:56:23;14.36;53.41
83596;HTU21D;73564;45.026;38.952;2024-03-06T02:58:48;14.41;52.67
83596;HTU21D;73564;45.026;38.952;2024-03-06T03:01:15;14.39;53.22
83596;HTU21D;73564;45.026;38.952;2024-03-06T03:03:41;14.42;52.88
83596;HTU21D;73564;45.026;38.952;2024-03-06T03:06:07;14.34;52.15
83596;HTU21D;73564;45.026;38.952;2024-03-06T03:08:33;14.29;53.10
83596;HTU21D;73564;45.026;38.952;2024-03-06T03:10:59;14.26;53.49
83596;HTU21D;73564;45.026;38.952;2024-03-06T03:13:24;14.34;53.52
83596;HTU21D;73564;45.026;38.952;2024-03-06T03:15:50;14.39;53.17
83596;HTU21D;73564;45.026;38.952;2024-03-06T03:18:16;14.38;52.38
83596;HTU21D;73564;45.026;38.952;2024-03-06T03:20:43;14.27;52.37
83596;HTU21D;73564;45.026;38.952;2024-03-06T03:23:09;14.10;53.10
83596;HTU21D;73564;45.026;38.952;2024-03-06T03:25:38;14.07;53.34
83596;HTU21D;73564;45.026;38.952;2024-03-06T03:28:04;14.05;53.27
83596;HTU21D;73564;45.026;38.952;2024-03-06T03:30:30;14.09;53.72
83596;HTU21D;73564;45.026;38.952;2024-03-06T03:32:57;14.21;53.71
83596;HTU21D;73564;45.026;38.952;2024-03-06T03:35:23;14.30;52.92
83596;HTU21D;73564;45.026;38.952;2024-03-06T03:37:51;14.24;52.40
83596;HTU21D;73564;45.026;38.952;2024-03-06T03:40:18;14.13;52.71
83596;HTU21D;73564;45.026;38.952;2024-03-06T03:42:44;14.04;52.72
83596;HTU21D;73564;45.026;38.952;2024-03-06T03:45:10;13.97;53.31
83596;HTU21D;73564;45.026;38.952;2024-03-06T03:47:35;13.94;53.46
83596;HTU21D;73564;45.026;38.952;2024-03-06T03:50:01;13.91;52.89
83596;HTU21D;73564;45.026;38.952;2024-03-06T03:52:27;13.76;52.13
83596;HTU21D;73564;45.026;38.952;2024-03-06T03:54:52;13.40;53.36
83596;HTU21D;73564;45.026;38.952;2024-03-06T03:57:18;13.24;53.78
83596;HTU21D;73564;45.026;38.952;2024-03-06T03:59:44;13.14;53.10
83596;HTU21D;73564;45.026;38.952;2024-03-06T04:02:10;12.92;53.78
83596;HTU21D;73564;45.026;38.952;2024-03-06T04:04:35;12.76;53.96
83596;HTU21D;73564;45.026;38.952;2024-03-06T04:07:01;12.61;54.65
83596;HTU21D;73564;45.026;38.952;2024-03-06T04:09:30;12.56;54.68
83596;HTU21D;73564;45.026;38.952;2024-03-06T04:11:55;12.48;54.65
83596;HTU21D;73564;45.026;38.952;2024-03-06T04:14:22;12.35;54.85
83596;HTU21D;73564;45.026;38.952;2024-03-06T04:16:47;12.23;54.17
83596;HTU21D;73564;45.026;38.952;2024-03-06T04:19:13;12.00;54.28
83596;HTU21D;73564;45.026;38.952;2024-03-06T04:21:43;11.75;54.69
83596;HTU21D;73564;45.026;38.952;2024-03-06T04:24:08;11.55;54.93
83596;HTU21D;73564;45.026;38.952;2024-03-06T04:26:35;11.43;56.36
83596;HTU21D;73564;45.026;38.952;2024-03-06T04:29:01;11.53;56.83
83596;HTU21D;73564;45.026;38.952;2024-03-06T04:31:26;11.68;56.71
83596;HTU21D;73564;45.026;38.952;2024-03-06T04:33:52;11.79;56.37
83596;HTU21D;73564;45.026;38.952;2024-03-06T04:36:18;11.89;56.36
83596;HTU21D;73564;45.026;38.952;2024-03-06T04:38:44;11.98;55.79
83596;HTU21D;73564;45.026;38.952;2024-03-06T04:41:09;12.00;56.35
83596;HTU21D;73564;45.026;38.952;2024-03-06T04:43:36;12.08;56.65
83596;HTU21D;73564;45.026;38.952;2024-03-06T04:46:02;12.23;56.65
83596;HTU21D;73564;45.026;38.952;2024-03-06T04:48:28;12.33;55.95
83596;HTU21D;73564;45.026;38.952;2024-03-06T04:50:53;12.38;55.74
83596;HTU21D;73564;45.026;38.952;2024-03-06T04:53:19;12.37;55.49
83596;HTU21D;73564;45.026;38.952;2024-03-06T04:55:48;12.33;54.91
83596;HTU21D;73564;45.026;38.952;2024-03-06T04:58:13;12.19;54.94
83596;HTU21D;73564;45.026;38.952;2024-03-06T05:00:39;12.06;55.32
83596;HTU21D;73564;45.026;38.952;2024-03-06T05:03:05;11.98;55.34
83596;HTU21D;73564;45.026;38.952;2024-03-06T05:05:31;11.87;55.99
83596;HTU21D;73564;45.026;38.952;2024-03-06T05:07:57;11.91;55.33
83596;HTU21D;73564;45.026;38.952;2024-03-06T05:10:23;11.82;55.13
83596;HTU21D;73564;45.026;38.952;2024-03-06T05:12:49;11.68;55.03
83596;HTU21D;73564;45.026;38.952;2024-03-06T05:15:16;11.52;55.41
83596;HTU21D;73564;45.026;38.952;2024-03-06T05:17:41;11.44;55.49
83596;HTU21D;73564;45.026;38.952;2024-03-06T05:20:07;11.33;56.16
83596;HTU21D;73564;45.026;38.952;2024-03-06T05:22:33;11.40;56.90
83596;HTU21D;73564;45.026;38.952;2024-03-06T05:24:59;11.57;56.62
83596;HTU21D;73564;45.026;38.952;2024-03-06T05:27:25;11.72;56.13
83596;HTU21D;73564;45.026;38.952;2024-03-06T05:29:51;11.78;55.35
83596;HTU21D;73564;45.026;38.952;2024-03-06T05:32:17;11.72;55.81
83596;HTU21D;73564;45.026;38.952;2024-03-06T05:34:43;11.72;55.20
83596;HTU21D;73564;45.026;38.952;2024-03-06T05:37:10;11.66;55.13
83596;HTU21D;73564;45.026;38.952;2024-03-06T05:39:36;11.58;55.33
83596;HTU21D;73564;45.026;38.952;2024-03-06T05:42:03;11.56;55.94
83596;HTU21D;73564;45.026;38.952;2024-03-06T05:44:33;11.62;55.51
83596;HTU21D;73564;45.026;38.952;2024-03-06T05:47:00;11.61;55.52
83596;HTU21D;73564;45.026;38.952;2024-03-06T05:49:29;11.59;55.52
83596;HTU21D;73564;45.026;38.952;2024-03-06T05:51:55;11.64;55.74
83596;HTU21D;73564;45.026;38.952;2024-03-06T05:54:22;11.76;55.36
83596;HTU21D;73564;45.026;38.952;2024-03-06T05:56:51;11.81;55.84
83596;HTU21D;73564;45.026;38.952;2024-03-06T05:59:18;11.93;56.19
83596;HTU21D;73564;45.026;38.952;2024-03-06T06:01:43;12.23;56.43
83596;HTU21D;73564;45.026;38.952;2024-03-06T06:04:10;12.56;55.90
83596;HTU21D;73564;45.026;38.952;2024-03-06T06:06:36;12.87;54.97
83596;HTU21D;73564;45.026;38.952;2024-03-06T06:09:03;13.09;54.86
83596;HTU21D;73564;45.026;38.952;2024-03-06T06:11:35;13.34;54.77
83596;HTU21D;73564;45.026;38.952;2024-03-06T06:14:01;13.58;54.03
83596;HTU21D;73564;45.026;38.952;2024-03-06T06:16:34;13.61;52.50
83596;HTU21D;73564;45.026;38.952;2024-03-06T06:19:00;13.47;53.10
83596;HTU21D;73564;45.026;38.952;2024-03-06T06:21:26;13.45;52.85
83596;HTU21D;73564;45.026;38.952;2024-03-06T06:23:52;13.31;52.82
83596;HTU21D;73564;45.026;38.952;2024-03-06T06:26:18;13.12;52.58
83596;HTU21D;73564;45.026;38.952;2024-03-06T06:28:43;12.92;52.64
83596;HTU21D;73564;45.026;38.952;2024-03-06T06:31:09;12.74;53.41
83596;HTU21D;73564;45.026;38.952;2024-03-06T06:33:35;12.64;53.45
83596;HTU21D;73564;45.026;38.952;2024-03-06T06:36:00;12.60;53.50
83596;HTU21D;73564;45.026;38.952;2024-03-06T06:38:26;12.55;53.51
83596;HTU21D;73564;45.026;38.952;2024-03-06T06:40:52;12.51;53.50
83596;HTU21D;73564;45.026;38.952;2024-03-06T06:43:18;12.41;54.07
83596;HTU21D;73564;45.026;38.952;2024-03-06T06:45:44;12.50;54.77
83596;HTU21D;73564;45.026;38.952;2024-03-06T06:48:09;12.73;54.21
83596;HTU21D;73564;45.026;38.952;2024-03-06T06:50:35;12.89;53.49
83596;HTU21D;73564;45.026;38.952;2024-03-06T06:53:01;12.87;53.11
83596;HTU21D;73564;45.026;38.952;2024-03-06T06:55:27;12.86;53.04
83596;HTU21D;73564;45.026;38.952;2024-03-06T06:57:53;12.85;53.82
83596;HTU21D;73564;45.026;38.952;2024-03-06T07:00:19;13.00;53.20
83596;HTU21D;73564;45.026;38.952;2024-03-06T07:02:47;13.09;53.12
83596;HTU21D;73564;45.026;38.952;2024-03-06T07:05:13;13.19;52.93
83596;HTU21D;73564;45.026;38.952;2024-03-06T07:07:39;13.33;52.66
83596;HTU21D;73564;45.026;38.952;2024-03-06T07:10:05;13.38;52.37
83596;HTU21D;73564;45.026;38.952;2024-03-06T07:12:31;13.48;52.62
83596;HTU21D;73564;45.026;38.952;2024-03-06T07:14:57;13.61;51.88
83596;HTU21D;73564;45.026;38.952;2024-03-06T07:17:23;13.69;51.94
83596;HTU21D;73564;45.026;38.952;2024-03-06T07:19:49;13.77;51.97
83596;HTU21D;73564;45.026;38.952;2024-03-06T07:22:16;13.89;51.40
83596;HTU21D;73564;45.026;38.952;2024-03-06T07:24:42;13.95;51.53
83596;HTU21D;73564;45.026;38.952;2024-03-06T07:27:08;14.03;51.14
83596;HTU21D;73564;45.026;38.952;2024-03-06T07:29:37;14.07;51.53
83596;HTU21D;73564;45.026;38.952;2024-03-06T07:32:03;14.23;51.04
83596;HTU21D;73564;45.026;38.952;2024-03-06T07:34:31;14.28;51.01
83596;HTU21D;73564;45.026;38.952;2024-03-06T07:36:57;14.38;50.46
83596;HTU21D;73564;45.026;38.952;2024-03-06T07:39:25;14.34;49.88
83596;HTU21D;73564;45.026;38.952;2024-03-06T07:41:51;14.21;49.78
83596;HTU21D;73564;45.026;38.952;2024-03-06T07:44:17;14.07;50.03
83596;HTU21D;73564;45.026;38.952;2024-03-06T07:46:42;14.06;50.50
83596;HTU21D;73564;45.026;38.952;2024-03-06T07:49:08;14.18;50.77
83596;HTU21D;73564;45.026;38.952;2024-03-06T07:51:34;14.38;49.99
83596;HTU21D;73564;45.026;38.952;2024-03-06T07:54:01;14.51;49.40
83596;HTU21D;73564;45.026;38.952;2024-03-06T07:56:29;14.54;48.41
83596;HTU21D;73564;45.026;38.952;2024-03-06T07:58:55;14.34;48.63
83596;HTU21D;73564;45.026;38.952;2024-03-06T08:01:22;14.22;48.97
83596;HTU21D;73564;45.026;38.952;2024-03-06T08:03:48;14.19;49.59
83596;HTU21D;73564;45.026;38.952;2024-03-06T08:06:13;14.22;49.09
83596;HTU21D;73564;45.026;38.952;2024-03-06T08:08:42;14.18;49.05
83596;HTU21D;73564;45.026;38.952;2024-03-06T08:11:15;14.22;49.56
83596;HTU21D;73564;45.026;38.952;2024-03-06T08:13:41;14.32;49.92
83596;HTU21D;73564;45.026;38.952;2024-03-06T08:16:07;14.42;49.55
83596;HTU21D;73564;45.026;38.952;2024-03-06T08:18:34;14.49;49.04
83596;HTU21D;73564;45.026;38.952;2024-03-06T08:21:01;14.45;48.43
83596;HTU21D;73564;45.026;38.952;2024-03-06T08:23:27;14.34;48.41
83596;HTU21D;73564;45.026;38.952;2024-03-06T08:25:53;14.25;49.09
83596;HTU21D;73564;45.026;38.952;2024-03-06T08:28:18;14.27;48.76
83596;HTU21D;73564;45.026;38.952;2024-03-06T08:30:44;14.28;49.05
83596;HTU21D;73564;45.026;38.952;2024-03-06T08:33:11;14.32;48.41
83596;HTU21D;73564;45.026;38.952;2024-03-06T08:35:37;14.34;47.94
83596;HTU21D;73564;45.026;38.952;2024-03-06T08:38:03;14.30;48.83
83596;HTU21D;73564;45.026;38.952;2024-03-06T08:40:29;14.32;48.63
83596;HTU21D;73564;45.026;38.952;2024-03-06T08:42:55;14.34;48.40
83596;HTU21D;73564;45.026;38.952;2024-03-06T08:45:22;14.37;48.02
83596;HTU21D;73564;45.026;38.952;2024-03-06T08:47:48;14.39;48.48
83596;HTU21D;73564;45.026;38.952;2024-03-06T08:50:14;14.52;48.22
83596;HTU21D;73564;45.026;38.952;2024-03-06T08:52:41;14.65;47.78
83596;HTU21D;73564;45.026;38.952;2024-03-06T08:55:07;14.71;47.60
83596;HTU21D;73564;45.026;38.952;2024-03-06T08:57:33;14.77;47.66
83596;HTU21D;73564;45.026;38.952;2024-03-06T08:59:59;14.74;46.86
83596;HTU21D;73564;45.026;38.952;2024-03-06T09:02:25;14.72;46.96
83596;HTU21D;73564;45.026;38.952;2024-03-06T09:04:52;14.73;46.83
83596;HTU21D;73564;45.026;38.952;2024-03-06T09:07:18;14.71;46.63
83596;HTU21D;73564;45.026;38.952;2024-03-06T09:09:45;14.71;46.76
83596;HTU21D;73564;45.026;38.952;2024-03-06T09:12:11;14.77;46.78
83596;HTU21D;73564;45.026;38.952;2024-03-06T09:14:38;14.80;46.96
83596;HTU21D;73564;45.026;38.952;2024-03-06T09:17:04;14.86;46.62
83596;HTU21D;73564;45.026;38.952;2024-03-06T09:19:31;14.92;46.92
83596;HTU21D;73564;45.026;38.952;2024-03-06T09:21:58;14.98;47.16
83596;HTU21D;73564;45.026;38.952;2024-03-06T09:24:24;15.13;47.35
83596;HTU21D;73564;45.026;38.952;2024-03-06T09:26:51;15.33;47.60
83596;HTU21D;73564;45.026;38.952;2024-03-06T09:29:17;15.56;46.99
83596;HTU21D;73564;45.026;38.952;2024-03-06T09:31:43;15.61;46.37
83596;HTU21D;73564;45.026;38.952;2024-03-06T09:34:09;15.56;46.23
83596;HTU21D;73564;45.026;38.952;2024-03-06T09:36:39;15.52;46.63
83596;HTU21D;73564;45.026;38.952;2024-03-06T09:39:05;15.55;46.73
83596;HTU21D;73564;45.026;38.952;2024-03-06T09:41:31;15.61;46.85
83596;HTU21D;73564;45.026;38.952;2024-03-06T09:43:58;15.66;46.45
83596;HTU21D;73564;45.026;38.952;2024-03-06T09:46:25;15.63;46.05
83596;HTU21D;73564;45.026;38.952;2024-03-06T09:48:52;15.60;46.33
83596;HTU21D;73564;45.026;38.952;2024-03-06T09:51:19;15.57;46.30
83596;HTU21D;73564;45.026;38.952;2024-03-06T09:53:46;15.57;46.39
83596;HTU21D;73564;45.026;38.952;2024-03-06T09:56:16;15.55;46.57
83596;HTU21D;73564;45.026;38.952;2024-03-06T09:58:42;15.56;46.47
83596;HTU21D;73564;45.026;38.952;2024-03-06T10:01:08;15.59;46.77
83596;HTU21D;73564;45.026;38.952;2024-03-06T10:03:34;15.66;46.91
83596;HTU21D;73564;45.026;38.952;2024-03-06T10:06:00;15.68;46.99
83596;HTU21D;73564;45.026;38.952;2024-03-06T10:08:26;15.69;46.40
83596;HTU21D;73564;45.026;38.952;2024-03-06T10:10:52;15.65;46.14
83596;HTU21D;73564;45.026;38.952;2024-03-06T10:13:23;15.59;46.64
83596;HTU21D;73564;45.026;38.952;2024-03-06T10:16:03;15.59;46.47
83596;HTU21D;73564;45.026;38.952;2024-03-06T10:18:30;15.52;46.17
83596;HTU21D;73564;45.026;38.952;2024-03-06T10:20:56;15.36;46.12
83596;HTU21D;73564;45.026;38.952;2024-03-06T10:23:23;15.28;46.31
83596;HTU21D;73564;45.026;38.952;2024-03-06T10:25:50;15.21;46.10
83596;HTU21D;73564;45.026;38.952;2024-03-06T10:28:20;15.09;46.10
83596;HTU21D;73564;45.026;38.952;2024-03-06T10:30:46;14.96;46.19
83596;HTU21D;73564;45.026;38.952;2024-03-06T10:33:13;14.82;46.76
83596;HTU21D;73564;45.026;38.952;2024-03-06T10:35:43;14.83;47.64
83596;HTU21D;73564;45.026;38.952;2024-03-06T10:38:10;14.98;47.56
83596;HTU21D;73564;45.026;38.952;2024-03-06T10:40:41;15.14;47.17
83596;HTU21D;73564;45.026;38.952;2024-03-06T10:43:08;15.23;47.20
83596;HTU21D;73564;45.026;38.952;2024-03-06T10:48:26;15.44;47.09
83596;HTU21D;73564;45.026;38.952;2024-03-06T10:50:54;15.47;46.79
83596;HTU21D;73564;45.026;38.952;2024-03-06T10:53:22;15.51;47.30
83596;HTU21D;73564;45.026;38.952;2024-03-06T10:55:49;15.59;47.79
83596;HTU21D;73564;45.026;38.952;2024-03-06T10:58:15;15.71;47.54
83596;HTU21D;73564;45.026;38.952;2024-03-06T11:00:45;15.80;47.01
83596;HTU21D;73564;45.026;38.952;2024-03-06T11:03:14;15.75;46.67
83596;HTU21D;73564;45.026;38.952;2024-03-06T11:05:41;15.67;46.39
83596;HTU21D;73564;45.026;38.952;2024-03-06T11:08:15;15.65;46.59
83596;HTU21D;73564;45.026;38.952;2024-03-06T11:10:42;15.63;46.73
83596;HTU21D;73564;45.026;38.952;2024-03-06T11:13:21;15.62;46.78
83596;HTU21D;73564;45.026;38.952;2024-03-06T11:15:50;15.59;46.67
83596;HTU21D;73564;45.026;38.952;2024-03-06T11:24:22;15.52;46.47
83596;HTU21D;73564;45.026;38.952;2024-03-06T11:27:09;15.47;46.72
83596;HTU21D;73564;45.026;38.952;2024-03-06T11:30:09;15.42;46.07
83596;HTU21D;73564;45.026;38.952;2024-03-06T11:33:01;15.23;46.75
83596;HTU21D;73564;45.026;38.952;2024-03-06T11:35:30;15.17;46.67
83596;HTU21D;73564;45.026;38.952;2024-03-06T11:37:56;15.12;46.98
83596;HTU21D;73564;45.026;38.952;2024-03-06T11:40:25;15.13;47.16
83596;HTU21D;73564;45.026;38.952;2024-03-06T11:42:51;15.12;46.86
83596;HTU21D;73564;45.026;38.952;2024-03-06T11:45:17;15.07;46.96
83596;HTU21D;73564;45.026;38.952;2024-03-06T11:48:01;15.09;47.12
83596;HTU21D;73564;45.026;38.952;2024-03-06T11:50:27;15.07;47.41
83596;HTU21D;73564;45.026;38.952;2024-03-06T11:52:54;15.12;47.95
83596;HTU21D;73564;45.026;38.952;2024-03-06T11:55:23;15.27;48.28
83596;HTU21D;73564;45.026;38.952;2024-03-06T11:57:51;15.44;47.41
83596;HTU21D;73564;45.026;38.952;2024-03-06T12:00:22;15.48;47.62
83596;HTU21D;73564;45.026;38.952;2024-03-06T12:02:48;15.52;46.59
83596;HTU21D;73564;45.026;38.952;2024-03-06T12:05:15;15.44;46.84
83596;HTU21D;73564;45.026;38.952;2024-03-06T12:07:46;15.36;46.93
83596;HTU21D;73564;45.026;38.952;2024-03-06T12:10:12;15.32;47.82
83596;HTU21D;73564;45.026;38.952;2024-03-06T12:12:37;15.41;47.63
83596;HTU21D;73564;45.026;38.952;2024-03-06T12:15:04;15.47;47.01
83596;HTU21D;73564;45.026;38.952;2024-03-06T12:17:31;15.45;46.90
83596;HTU21D;73564;45.026;38.952;2024-03-06T12:19:57;15.38;46.86
83596;HTU21D;73564;45.026;38.952;2024-03-06T12:22:25;15.34;46.93
83596;HTU21D;73564;45.026;38.952;2024-03-06T12:25:00;15.32;45.52
83596;HTU21D;73564;45.026;38.952;2024-03-06T12:27:26;15.26;46.23
83596;HTU21D;73564;45.026;38.952;2024-03-06T12:29:52;15.24;46.27
83596;HTU21D;73564;45.026;38.952;2024-03-06T12:32:19;15.24;46.86
83596;HTU21D;73564;45.026;38.952;2024-03-06T12:34:56;15.31;46.80
83596;HTU21D;73564;45.026;38.952;2024-03-06T12:37:29;15.34;46.49
83596;HTU21D;73564;45.026;38.952;2024-03-06T12:39:58;15.36;46.50
83596;HTU21D;73564;45.026;38.952;2024-03-06T12:42:24;15.40;46.51
83596;HTU21D;73564;45.026;38.952;2024-03-06T12:44:50;15.43;46.57
83596;HTU21D;73564;45.026;38.952;2024-03-06T12:47:15;15.49;46.32
83596;HTU21D;73564;45.026;38.952;2024-03-06T12:49:41;15.51;46.35
83596;HTU21D;73564;45.026;38.952;2024-03-06T12:52:07;15.52;46.02
83596;HTU21D;73564;45.026;38.952;2024-03-06T12:54:34;15.48;46.22
83596;HTU21D;73564;45.026;38.952;2024-03-06T12:57:00;15.49;46.65
83596;HTU21D;73564;45.026;38.952;2024-03-06T12:59:26;15.54;46.07
83596;HTU21D;73564;45.026;38.952;2024-03-06T13:01:51;15.48;45.70
83596;HTU21D;73564;45.026;38.952;2024-03-06T13:04:17;15.42;46.18
83596;HTU21D;73564;45.026;38.952;2024-03-06T13:06:43;15.39;46.12
83596;HTU21D;73564;45.026;38.952;2024-03-06T13:09:10;15.34;46.14
83596;HTU21D;73564;45.026;38.952;2024-03-06T13:11:36;15.42;46.47
83596;HTU21D;73564;45.026;38.952;2024-03-06T13:14:02;15.48;46.89
83596;HTU21D;73564;45.026;38.952;2024-03-06T13:16:27;15.60;46.78
83596;HTU21D;73564;45.026;38.952;2024-03-06T13:18:54;15.68;46.83
83596;HTU21D;73564;45.026;38.952;2024-03-06T13:21:22;15.75;46.73
83596;HTU21D;73564;45.026;38.952;2024-03-06T13:23:48;15.80;46.79
83596;HTU21D;73564;45.026;38.952;2024-03-06T13:26:15;15.84;46.76
83596;HTU21D;73564;45.026;38.952;2024-03-06T13:28:41;15.86;45.93
83596;HTU21D;73564;45.026;38.952;2024-03-06T13:31:07;15.85;46.61
83596;HTU21D;73564;45.026;38.952;2024-03-06T13:33:33;15.88;46.43
83596;HTU21D;73564;45.026;38.952;2024-03-06T13:35:59;15.90;46.08
83596;HTU21D;73564;45.026;38.952;2024-03-06T13:38:25;15.87;46.70
83596;HTU21D;73564;45.026;38.952;2024-03-06T13:40:50;15.88;46.76
83596;HTU21D;73564;45.026;38.952;2024-03-06T13:43:16;15.90;46.57
83596;HTU21D;73564;45.026;38.952;2024-03-06T13:45:51;15.90;46.39
83596;HTU21D;73564;45.026;38.952;2024-03-06T13:48:17;15.88;46.85
83596;HTU21D;73564;45.026;38.952;2024-03-06T13:50:45;15.89;46.37
83596;HTU21D;73564;45.026;38.952;2024-03-06T13:53:11;15.82;46.57
83596;HTU21D;73564;45.026;38.952;2024-03-06T13:55:37;15.77;46.89
83596;HTU21D;73564;45.026;38.952;2024-03-06T13:58:03;15.77;47.52
83596;HTU21D;73564;45.026;38.952;2024-03-06T14:00:29;15.84;46.95
83596;HTU21D;73564;45.026;38.952;2024-03-06T14:02:55;15.84;47.45
83596;HTU21D;73564;45.026;38.952;2024-03-06T14:05:21;15.88;47.60
83596;HTU21D;73564;45.026;38.952;2024-03-06T14:07:51;15.92;47.86
83596;HTU21D;73564;45.026;38.952;2024-03-06T14:10:16;15.98;48.01
83596;HTU21D;73564;45.026;38.952;2024-03-06T14:12:44;15.92;48.18
83596;HTU21D;73564;45.026;38.952;2024-03-06T14:15:10;15.89;48.28
83596;HTU21D;73564;45.026;38.952;2024-03-06T14:17:37;15.80;49.59
83596;HTU21D;73564;45.026;38.952;2024-03-06T14:20:03;15.76;48.98
83596;HTU21D;73564;45.026;38.952;2024-03-06T14:22:30;15.72;49.98
83596;HTU21D;73564;45.026;38.952;2024-03-06T14:24:56;15.77;50.43
83596;HTU21D;73564;45.026;38.952;2024-03-06T14:27:21;15.89;50.92
83596;HTU21D;73564;45.026;38.952;2024-03-06T14:29:47;16.01;50.97
83596;HTU21D;73564;45.026;38.952;2024-03-06T14:32:14;16.14;50.98
83596;HTU21D;73564;45.026;38.952;2024-03-06T14:34:40;16.21;50.80
83596;HTU21D;73564;45.026;38.952;2024-03-06T14:37:09;16.21;50.84
83596;HTU21D;73564;45.026;38.952;2024-03-06T14:39:34;16.17;51.22
83596;HTU21D;73564;45.026;38.952;2024-03-06T14:42:00;16.18;51.69
83596;HTU21D;73564;45.026;38.952;2024-03-06T14:44:26;16.25;52.04
83596;HTU21D;73564;45.026;38.952;2024-03-06T14:46:52;16.32;51.95
83596;HTU21D;73564;45.026;38.952;2024-03-06T14:49:18;16.41;52.17
83596;HTU21D;73564;45.026;38.952;2024-03-06T14:51:44;16.46;52.33
83596;HTU21D;73564;45.026;38.952;2024-03-06T14:54:09;16.52;52.43
83596;HTU21D;73564;45.026;38.952;2024-03-06T14:56:35;16.59;52.60
83596;HTU21D;73564;45.026;38.952;2024-03-06T14:59:01;16.58;52.43
83596;HTU21D;73564;45.026;38.952;2024-03-06T15:01:27;16.54;52.73
83596;HTU21D;73564;45.026;38.952;2024-03-06T15:03:56;16.48;52.78
83596;HTU21D;73564;45.026;38.952;2024-03-06T15:06:23;16.42;53.47
83596;HTU21D;73564;45.026;38.952;2024-03-06T15:08:49;16.44;53.89